sensor_id;sensor_type;location;lat;lon;timestamp;temperature;humidity
29353;DHT22;16344;50.364;8.944;2023-04-03T00:01:02;5.50;99.90
29353;DHT22;16344;50.364;8.944;2023-04-03T00:03:28;5.50;99.90
29353;DHT22;16344;50.364;8.944;2023-04-03T00:05:54;5.50;99.90
29353;DHT22;16344;50.364;8.944;2023-04-03T00:08:20;5.40;99.90
29353;DHT22;16344;50.364;8.944;2023-04-03T00:10:45;5.40;99.90
29353;DHT22;16344;50.364;8.944;2023-04-03T00:13:11;5.40;99.90
29353;DHT22;16344;50.364;8.944;2023-04-03T00:15:38;5.40;99.90
29353;DHT22;16344;50.364;8.944;2023-04-03T00:18:03;5.40;99.90
29353;DHT22;16344;50.364;8.944;2023-04-03T00:20:29;5.40;99.90
29353;DHT22;16344;50.364;8.944;2023-04-03T00:22:55;5.40;99.90
29353;DHT22;16344;50.364;8.944;2023-04-03T00:25:21;5.40;99.90
29353;DHT22;16344;50.364;8.944;2023-04-03T00:27:46;5.40;99.90
29353;DHT22;16344;50.364;8.944;2023-04-03T00:30:15;5.40;99.90
29353;DHT22;16344;50.364;8.944;2023-04-03T00:32:40;5.40;99.90
29353;DHT22;16344;50.364;8.944;2023-04-03T00:35:06;5.40;99.90
29353;DHT22;16344;50.364;8.944;2023-04-03T00:37:32;5.40;99.90
29353;DHT22;16344;50.364;8.944;2023-04-03T00:39:58;5.30;99.90
29353;DHT22;16344;50.364;8.944;2023-04-03T00:42:24;5.30;99.90
29353;DHT22;16344;50.364;8.944;2023-04-03T00:47:18;5.20;99.90
29353;DHT22;16344;50.364;8.944;2023-04-03T00:49:44;5.20;99.90
29353;DHT22;16344;50.364;8.944;2023-04-03T00:52:14;5.30;1.00
29353;DHT22;16344;50.364;8.944;2023-04-03T00:54:42;5.40;99.90
29353;DHT22;16344;50.364;8.944;2023-04-03T00:57:08;5.40;99.90
29353;DHT22;16344;50.364;8.944;2023-04-03T00:59:38;5.30;99.90
29353;DHT22;16344;50.364;8.944;2023-04-03T01:02:05;5.40;1.00
29353;DHT22;16344;50.364;8.944;2023-04-03T01:04:36;5.40;1.00
29353;DHT22;16344;50.364;8.944;2023-04-03T01:07:11;5.40;1.00
29353;DHT22;16344;50.364;8.944;2023-04-03T01:09:38;5.40;1.00
29353;DHT22;16344;50.364;8.944;2023-04-03T01:12:32;5.40;1.00
29353;DHT22;16344;50.364;8.944;2023-04-03T01:15:00;5.40;1.00
29353;DHT22;16344;50.364;8.944;2023-04-03T01:17:36;5.40;1.00
29353;DHT22;16344;50.364;8.944;2023-04-03T01:25:31;5.40;1.00
29353;DHT22;16344;50.364;8.944;2023-04-03T01:27:57;5.40;1.00
29353;DHT22;16344;50.364;8.944;2023-04-03T01:30:27;5.40;1.00
29353;DHT22;16344;50.364;8.944;2023-04-03T01:32:55;5.40;1.00
29353;DHT22;16344;50.364;8.944;2023-04-03T01:35:20;5.40;1.00
29353;DHT22;16344;50.364;8.944;2023-04-03T01:37:46;5.40;1.00
29353;DHT22;16344;50.364;8.944;2023-04-03T01:40:11;5.40;1.00
29353;DHT22;16344;50.364;8.944;2023-04-03T01:42:37;5.50;1.00
29353;DHT22;16344;50.364;8.944;2023-04-03T01:45:03;5.50;1.00
29353;DHT22;16344;50.364;8.944;2023-04-03T01:47:28;5.50;1.00
29353;DHT22;16344;50.364;8.944;2023-04-03T01:49:54;5.50;1.00
29353;DHT22;16344;50.364;8.944;2023-04-03T01:52:19;5.50;1.00
29353;DHT22;16344;50.364;8.944;2023-04-03T01:54:45;5.50;1.00
29353;DHT22;16344;50.364;8.944;2023-04-03T01:57:10;5.50;1.00
29353;DHT22;16344;50.364;8.944;2023-04-03T01:59:36;5.50;99.90
29353;DHT22;16344;50.364;8.944;2023-04-03T02:02:01;5.50;99.90
29353;DHT22;16344;50.364;8.944;2023-04-03T02:04:27;5.50;99.90
29353;DHT22;16344;50.364;8.944;2023-04-03T02:06:52;5.60;99.90
29353;DHT22;16344;50.364;8.944;2023-04-03T02:09:18;5.50;99.90
29353;DHT22;16344;50.364;8.944;2023-04-03T02:11:43;5.60;99.90
29353;DHT22;16344;50.364;8.944;2023-04-03T02:14:09;5.50;99.90
29353;DHT22;16344;50.364;8.944;2023-04-03T02:16:35;5.50;99.90
29353;DHT22;16344;50.364;8.944;2023-04-03T02:19:00;5.50;99.90
29353;DHT22;16344;50.364;8.944;2023-04-03T02:21:26;5.50;99.90
29353;DHT22;16344;50.364;8.944;2023-04-03T02:23:51;5.50;99.90
29353;DHT22;16344;50.364;8.944;2023-04-03T02:26:17;5.40;99.90
29353;DHT22;16344;50.364;8.944;2023-04-03T02:28:43;5.40;99.90
29353;DHT22;16344;50.364;8.944;2023-04-03T02:31:09;5.30;99.90
29353;DHT22;16344;50.364;8.944;2023-04-03T02:33:36;5.20;99.90
29353;DHT22;16344;50.364;8.944;2023-04-03T02:36:02;5.10;99.90
29353;DHT22;16344;50.364;8.944;2023-04-03T02:38:28;5.10;99.90
29353;DHT22;16344;50.364;8.944;2023-04-03T02:41:00;5.00;99.90
29353;DHT22;16344;50.364;8.944;2023-04-03T02:43:26;4.90;99.90
29353;DHT22;16344;50.364;8.944;2023-04-03T02:45:51;4.90;99.90
29353;DHT22;16344;50.364;8.944;2023-04-03T02:48:17;4.90;99.90
29353;DHT22;16344;50.364;8.944;2023-04-03T02:50:42;4.90;99.90
29353;DHT22;16344;50.364;8.944;2023-04-03T02:53:08;4.90;99.90
29353;DHT22;16344;50.364;8.944;2023-04-03T02:55:33;4.80;99.90
29353;DHT22;16344;50.364;8.944;2023-04-03T02:57:59;4.80;99.90
29353;DHT22;16344;50.364;8.944;2023-04-03T03:00:24;4.70;99.90
29353;DHT22;16344;50.364;8.944;2023-04-03T03:02:50;4.70;99.90
29353;DHT22;16344;50.364;8.944;2023-04-03T03:05:15;4.60;99.90
29353;DHT22;16344;50.364;8.944;2023-04-03T03:07:41;4.50;99.90
29353;DHT22;16344;50.364;8.944;2023-04-03T03:10:06;4.50;99.90
29353;DHT22;16344;50.364;8.944;2023-04-03T03:12:32;4.40;99.90
29353;DHT22;16344;50.364;8.944;2023-04-03T03:14:57;4.40;99.90
29353;DHT22;16344;50.364;8.944;2023-04-03T03:17:23;4.30;99.90
29353;DHT22;16344;50.364;8.944;2023-04-03T03:19:48;4.20;99.90
29353;DHT22;16344;50.364;8.944;2023-04-03T03:22:14;4.20;99.90
29353;DHT22;16344;50.364;8.944;2023-04-03T03:24:40;4.10;99.90
29353;DHT22;16344;50.364;8.944;2023-04-03T03:27:05;4.10;99.90
29353;DHT22;16344;50.364;8.944;2023-04-03T03:29:31;4.10;99.90
29353;DHT22;16344;50.364;8.944;2023-04-03T03:31:56;4.00;99.90
29353;DHT22;16344;50.364;8.944;2023-04-03T03:34:22;4.00;99.90
29353;DHT22;16344;50.364;8.944;2023-04-03T03:36:47;3.90;99.90
29353;DHT22;16344;50.364;8.944;2023-04-03T03:39:13;3.90;99.90
29353;DHT22;16344;50.364;8.944;2023-04-03T03:41:38;3.90;99.90
29353;DHT22;16344;50.364;8.944;2023-04-03T03:44:04;3.90;99.90
29353;DHT22;16344;50.364;8.944;2023-04-03T03:46:29;3.80;99.90
29353;DHT22;16344;50.364;8.944;2023-04-03T03:48:55;3.90;99.90
29353;DHT22;16344;50.364;8.944;2023-04-03T03:51:21;3.70;99.90
29353;DHT22;16344;50.364;8.944;2023-04-03T03:53:46;3.70;99.90
29353;DHT22;16344;50.364;8.944;2023-04-03T03:56:11;3.70;99.90
29353;DHT22;16344;50.364;8.944;2023-04-03T03:58:37;3.70;1.00
29353;DHT22;16344;50.364;8.944;2023-04-03T04:01:03;3.60;1.00
29353;DHT22;16344;50.364;8.944;2023-04-03T04:03:30;3.60;1.00
29353;DHT22;16344;50.364;8.944;2023-04-03T04:05:56;3.60;1.00
29353;DHT22;16344;50.364;8.944;2023-04-03T04:08:22;3.50;1.00
29353;DHT22;16344;50.364;8.944;2023-04-03T04:10:47;3.50;1.00
29353;DHT22;16344;50.364;8.944;2023-04-03T04:13:13;3.50;1.00
29353;DHT22;16344;50.364;8.944;2023-04-03T04:15:38;3.50;1.00
29353;DHT22;16344;50.364;8.944;2023-04-03T04:18:04;3.50;1.00
29353;DHT22;16344;50.364;8.944;2023-04-03T04:20:29;3.40;1.00
29353;DHT22;16344;50.364;8.944;2023-04-03T04:22:55;3.30;1.00
29353;DHT22;16344;50.364;8.944;2023-04-03T04:25:20;3.30;1.00
29353;DHT22;16344;50.364;8.944;2023-04-03T04:27:46;3.30;1.00
29353;DHT22;16344;50.364;8.944;2023-04-03T04:30:12;3.30;1.00
29353;DHT22;16344;50.364;8.944;2023-04-03T04:32:38;3.30;1.00
29353;DHT22;16344;50.364;8.944;2023-04-03T04:35:04;3.30;1.00
29353;DHT22;16344;50.364;8.944;2023-04-03T04:37:30;3.30;1.00
29353;DHT22;16344;50.364;8.944;2023-04-03T04:39:55;3.30;1.00
29353;DHT22;16344;50.364;8.944;2023-04-03T04:42:21;3.40;1.00
29353;DHT22;16344;50.364;8.944;2023-04-03T04:44:46;3.40;1.00
29353;DHT22;16344;50.364;8.944;2023-04-03T04:47:12;3.40;1.00
29353;DHT22;16344;50.364;8.944;2023-04-03T04:49:37;3.30;1.00
29353;DHT22;16344;50.364;8.944;2023-04-03T04:52:03;3.20;1.00
29353;DHT22;16344;50.364;8.944;2023-04-03T04:54:29;3.10;1.00
29353;DHT22;16344;50.364;8.944;2023-04-03T04:56:54;3.00;1.00
29353;DHT22;16344;50.364;8.944;2023-04-03T04:59:20;3.00;1.00
29353;DHT22;16344;50.364;8.944;2023-04-03T05:01:45;2.90;1.00
29353;DHT22;16344;50.364;8.944;2023-04-03T05:04:11;3.00;1.00
29353;DHT22;16344;50.364;8.944;2023-04-03T05:06:38;2.90;1.00
29353;DHT22;16344;50.364;8.944;2023-04-03T05:09:03;2.90;1.00
29353;DHT22;16344;50.364;8.944;2023-04-03T05:11:29;2.90;1.00
29353;DHT22;16344;50.364;8.944;2023-04-03T05:13:55;2.90;1.00
29353;DHT22;16344;50.364;8.944;2023-04-03T05:16:21;3.10;1.00
29353;DHT22;16344;50.364;8.944;2023-04-03T05:18:46;3.70;1.00
29353;DHT22;16344;50.364;8.944;2023-04-03T05:21:12;4.50;99.90
29353;DHT22;16344;50.364;8.944;2023-04-03T05:23:37;5.30;99.90
29353;DHT22;16344;50.364;8.944;2023-04-03T05:26:03;6.20;1.00
29353;DHT22;16344;50.364;8.944;2023-04-03T05:28:29;7.00;1.00
29353;DHT22;16344;50.364;8.944;2023-04-03T05:30:56;7.70;1.00
29353;DHT22;16344;50.364;8.944;2023-04-03T05:33:23;8.20;1.00
29353;DHT22;16344;50.364;8.944;2023-04-03T05:35:48;8.70;1.00
29353;DHT22;16344;50.364;8.944;2023-04-03T05:38:14;9.30;1.00
29353;DHT22;16344;50.364;8.944;2023-04-03T05:40:40;10.00;1.00
29353;DHT22;16344;50.364;8.944;2023-04-03T05:43:05;10.90;1.00
29353;DHT22;16344;50.364;8.944;2023-04-03T05:45:31;11.60;1.00
29353;DHT22;16344;50.364;8.944;2023-04-03T05:47:57;12.20;1.00
29353;DHT22;16344;50.364;8.944;2023-04-03T05:50:22;12.60;1.00
29353;DHT22;16344;50.364;8.944;2023-04-03T05:52:49;13.20;1.00
29353;DHT22;16344;50.364;8.944;2023-04-03T05:55:16;13.60;1.00
29353;DHT22;16344;50.364;8.944;2023-04-03T05:57:41;14.30;1.00
29353;DHT22;16344;50.364;8.944;2023-04-03T06:00:08;14.40;1.00
29353;DHT22;16344;50.364;8.944;2023-04-03T06:02:35;14.70;1.00
29353;DHT22;16344;50.364;8.944;2023-04-03T06:05:01;14.80;1.00
29353;DHT22;16344;50.364;8.944;2023-04-03T06:07:27;15.10;1.00
29353;DHT22;16344;50.364;8.944;2023-04-03T06:09:55;15.80;1.00
29353;DHT22;16344;50.364;8.944;2023-04-03T06:12:21;16.50;1.00
29353;DHT22;16344;50.364;8.944;2023-04-03T06:14:47;16.70;99.90
29353;DHT22;16344;50.364;8.944;2023-04-03T06:17:14;17.00;99.90
29353;DHT22;16344;50.364;8.944;2023-04-03T06:19:40;17.00;99.90
29353;DHT22;16344;50.364;8.944;2023-04-03T06:22:06;17.20;99.90
29353;DHT22;16344;50.364;8.944;2023-04-03T06:24:32;16.60;99.90
29353;DHT22;16344;50.364;8.944;2023-04-03T06:26:58;16.30;99.90
29353;DHT22;16344;50.364;8.944;2023-04-03T06:29:24;16.00;99.90
29353;DHT22;16344;50.364;8.944;2023-04-03T06:31:50;15.10;99.90
29353;DHT22;16344;50.364;8.944;2023-04-03T06:34:16;14.50;99.90
29353;DHT22;16344;50.364;8.944;2023-04-03T06:36:42;14.50;99.90
29353;DHT22;16344;50.364;8.944;2023-04-03T06:39:11;14.50;99.90
29353;DHT22;16344;50.364;8.944;2023-04-03T06:41:38;14.30;99.90
29353;DHT22;16344;50.364;8.944;2023-04-03T06:44:03;13.60;99.90
29353;DHT22;16344;50.364;8.944;2023-04-03T06:46:29;13.30;1.00
29353;DHT22;16344;50.364;8.944;2023-04-03T06:48:54;12.80;1.00
29353;DHT22;16344;50.364;8.944;2023-04-03T06:51:21;12.20;1.00
29353;DHT22;16344;50.364;8.944;2023-04-03T06:53:48;12.00;1.00
29353;DHT22;16344;50.364;8.944;2023-04-03T06:56:14;11.90;1.00
29353;DHT22;16344;50.364;8.944;2023-04-03T06:58:41;11.80;1.00
29353;DHT22;16344;50.364;8.944;2023-04-03T07:01:07;11.50;1.00
29353;DHT22;16344;50.364;8.944;2023-04-03T07:03:33;11.10;1.00
29353;DHT22;16344;50.364;8.944;2023-04-03T07:05:59;11.30;1.00
29353;DHT22;16344;50.364;8.944;2023-04-03T07:08:24;11.30;1.00
29353;DHT22;16344;50.364;8.944;2023-04-03T07:10:51;11.00;1.00
29353;DHT22;16344;50.364;8.944;2023-04-03T07:13:16;10.60;1.00
29353;DHT22;16344;50.364;8.944;2023-04-03T07:15:42;10.60;1.00
29353;DHT22;16344;50.364;8.944;2023-04-03T07:18:08;10.40;1.00
29353;DHT22;16344;50.364;8.944;2023-04-03T07:20:33;10.30;1.00
29353;DHT22;16344;50.364;8.944;2023-04-03T07:22:59;10.10;1.00
29353;DHT22;16344;50.364;8.944;2023-04-03T07:25:25;10.10;1.00
29353;DHT22;16344;50.364;8.944;2023-04-03T07:27:50;10.10;1.00
29353;DHT22;16344;50.364;8.944;2023-04-03T07:30:16;9.90;1.00
29353;DHT22;16344;50.364;8.944;2023-04-03T07:32:41;9.90;1.00
29353;DHT22;16344;50.364;8.944;2023-04-03T07:35:07;9.90;1.00
29353;DHT22;16344;50.364;8.944;2023-04-03T07:37:33;10.00;1.00
29353;DHT22;16344;50.364;8.944;2023-04-03T07:39:58;9.90;1.00
29353;DHT22;16344;50.364;8.944;2023-04-03T07:42:25;10.00;1.00
29353;DHT22;16344;50.364;8.944;2023-04-03T07:44:53;10.00;1.00
29353;DHT22;16344;50.364;8.944;2023-04-03T07:47:18;10.00;1.00
29353;DHT22;16344;50.364;8.944;2023-04-03T07:49:45;9.80;1.00
29353;DHT22;16344;50.364;8.944;2023-04-03T07:52:11;10.00;1.00
29353;DHT22;16344;50.364;8.944;2023-04-03T07:54:37;9.70;1.00
29353;DHT22;16344;50.364;8.944;2023-04-03T07:57:02;9.60;1.00
29353;DHT22;16344;50.364;8.944;2023-04-03T07:59:28;9.70;1.00
29353;DHT22;16344;50.364;8.944;2023-04-03T08:01:53;9.80;1.00
29353;DHT22;16344;50.364;8.944;2023-04-03T08:04:19;9.40;1.00
29353;DHT22;16344;50.364;8.944;2023-04-03T08:06:44;9.50;1.00
29353;DHT22;16344;50.364;8.944;2023-04-03T08:09:10;9.50;1.00
29353;DHT22;16344;50.364;8.944;2023-04-03T08:11:38;9.40;1.00
29353;DHT22;16344;50.364;8.944;2023-04-03T08:14:03;9.30;1.00
29353;DHT22;16344;50.364;8.944;2023-04-03T08:16:29;9.20;1.00
29353;DHT22;16344;50.364;8.944;2023-04-03T08:18:55;9.10;1.00
29353;DHT22;16344;50.364;8.944;2023-04-03T08:21:21;9.10;1.00
29353;DHT22;16344;50.364;8.944;2023-04-03T08:23:49;9.10;1.00
29353;DHT22;16344;50.364;8.944;2023-04-03T08:26:17;9.30;1.00
29353;DHT22;16344;50.364;8.944;2023-04-03T08:28:43;9.40;1.00
29353;DHT22;16344;50.364;8.944;2023-04-03T08:31:14;9.50;1.00
29353;DHT22;16344;50.364;8.944;2023-04-03T08:33:41;9.40;1.00
29353;DHT22;16344;50.364;8.944;2023-04-03T08:36:15;9.30;1.00
29353;DHT22;16344;50.364;8.944;2023-04-03T08:38:41;8.80;1.00
29353;DHT22;16344;50.364;8.944;2023-04-03T08:41:25;8.90;1.00
29353;DHT22;16344;50.364;8.944;2023-04-03T08:47:02;9.40;1.00
29353;DHT22;16344;50.364;8.944;2023-04-03T08:49:45;9.30;1.00
29353;DHT22;16344;50.364;8.944;2023-04-03T08:52:18;9.40;1.00
29353;DHT22;16344;50.364;8.944;2023-04-03T08:54:54;9.40;1.00
29353;DHT22;16344;50.364;8.944;2023-04-03T08:57:36;9.60;1.00
29353;DHT22;16344;50.364;8.944;2023-04-03T09:00:11;9.60;1.00
29353;DHT22;16344;50.364;8.944;2023-04-03T09:02:49;9.60;1.00
29353;DHT22;16344;50.364;8.944;2023-04-03T09:05:36;9.30;1.00
29353;DHT22;16344;50.364;8.944;2023-04-03T09:08:23;9.40;1.00
29353;DHT22;16344;50.364;8.944;2023-04-03T09:11:00;9.50;1.00
29353;DHT22;16344;50.364;8.944;2023-04-03T09:13:47;9.50;1.00
29353;DHT22;16344;50.364;8.944;2023-04-03T09:16:36;9.60;1.00
29353;DHT22;16344;50.364;8.944;2023-04-03T09:19:11;9.00;1.00
29353;DHT22;16344;50.364;8.944;2023-04-03T09:21:39;8.90;1.00
29353;DHT22;16344;50.364;8.944;2023-04-03T09:24:10;8.90;1.00
29353;DHT22;16344;50.364;8.944;2023-04-03T09:26:42;9.10;1.00
29353;DHT22;16344;50.364;8.944;2023-04-03T09:29:15;9.20;1.00
29353;DHT22;16344;50.364;8.944;2023-04-03T09:31:44;9.10;1.00
29353;DHT22;16344;50.364;8.944;2023-04-03T09:34:19;8.90;1.00
29353;DHT22;16344;50.364;8.944;2023-04-03T09:36:49;8.70;1.00
29353;DHT22;16344;50.364;8.944;2023-04-03T09:39:23;8.50;1.00
29353;DHT22;16344;50.364;8.944;2023-04-03T09:42:01;8.40;1.00
29353;DHT22;16344;50.364;8.944;2023-04-03T09:44:33;7.90;1.00
29353;DHT22;16344;50.364;8.944;2023-04-03T09:46:59;7.50;1.00
29353;DHT22;16344;50.364;8.944;2023-04-03T09:49:42;7.50;1.00
29353;DHT22;16344;50.364;8.944;2023-04-03T09:52:19;7.60;1.00
29353;DHT22;16344;50.364;8.944;2023-04-03T09:54:45;7.60;1.00
29353;DHT22;16344;50.364;8.944;2023-04-03T09:57:12;7.50;1.00
29353;DHT22;16344;50.364;8.944;2023-04-03T09:59:47;7.30;1.00
29353;DHT22;16344;50.364;8.944;2023-04-03T10:02:36;7.30;1.00
29353;DHT22;16344;50.364;8.944;2023-04-03T10:05:04;7.40;1.00
29353;DHT22;16344;50.364;8.944;2023-04-03T10:07:37;7.90;1.00
29353;DHT22;16344;50.364;8.944;2023-04-03T10:13:20;8.00;1.00
29353;DHT22;16344;50.364;8.944;2023-04-03T10:16:07;7.90;1.00
29353;DHT22;16344;50.364;8.944;2023-04-03T10:27:31;7.50;1.00
29353;DHT22;16344;50.364;8.944;2023-04-03T10:30:29;7.80;1.00
29353;DHT22;16344;50.364;8.944;2023-04-03T10:38:48;7.90;1.00
29353;DHT22;16344;50.364;8.944;2023-04-03T10:41:46;7.90;1.00
29353;DHT22;16344;50.364;8.944;2023-04-03T10:44:17;8.10;1.00
29353;DHT22;16344;50.364;8.944;2023-04-03T10:47:17;8.20;1.00
29353;DHT22;16344;50.364;8.944;2023-04-03T10:49:56;8.20;1.00
29353;DHT22;16344;50.364;8.944;2023-04-03T10:55:24;8.70;1.00
29353;DHT22;16344;50.364;8.944;2023-04-03T10:57:57;8.80;1.00
29353;DHT22;16344;50.364;8.944;2023-04-03T11:00:40;8.70;1.00
29353;DHT22;16344;50.364;8.944;2023-04-03T11:03:15;8.10;1.00
29353;DHT22;16344;50.364;8.944;2023-04-03T11:05:45;8.00;1.00
29353;DHT22;16344;50.364;8.944;2023-04-03T11:08:35;8.50;1.00
29353;DHT22;16344;50.364;8.944;2023-04-03T11:11:07;9.00;1.00
29353;DHT22;16344;50.364;8.944;2023-04-03T11:13:57;9.20;1.00
29353;DHT22;16344;50.364;8.944;2023-04-03T11:16:27;9.10;1.00
29353;DHT22;16344;50.364;8.944;2023-04-03T11:19:11;9.00;1.00
29353;DHT22;16344;50.364;8.944;2023-04-03T11:21:42;8.90;1.00
29353;DHT22;16344;50.364;8.944;2023-04-03T11:24:31;8.70;1.00
29353;DHT22;16344;50.364;8.944;2023-04-03T11:27:15;8.50;1.00
29353;DHT22;16344;50.364;8.944;2023-04-03T11:29:44;8.60;1.00
29353;DHT22;16344;50.364;8.944;2023-04-03T11:34:46;9.00;1.00
29353;DHT22;16344;50.364;8.944;2023-04-03T11:37:24;9.00;1.00
29353;DHT22;16344;50.364;8.944;2023-04-03T11:39:57;9.20;1.00
29353;DHT22;16344;50.364;8.944;2023-04-03T11:42:40;9.00;1.00
29353;DHT22;16344;50.364;8.944;2023-04-03T11:47:58;8.90;1.00
29353;DHT22;16344;50.364;8.944;2023-04-03T11:50:42;8.70;1.00
29353;DHT22;16344;50.364;8.944;2023-04-03T11:58:17;8.00;1.00
29353;DHT22;16344;50.364;8.944;2023-04-03T12:19:29;8.80;1.00
29353;DHT22;16344;50.364;8.944;2023-04-03T12:22:07;9.10;1.00
29353;DHT22;16344;50.364;8.944;2023-04-03T12:24:49;8.80;1.00
29353;DHT22;16344;50.364;8.944;2023-04-03T12:27:29;8.80;1.00
29353;DHT22;16344;50.364;8.944;2023-04-03T12:39:47;8.70;1.00
29353;DHT22;16344;50.364;8.944;2023-04-03T12:42:34;8.40;1.00
29353;DHT22;16344;50.364;8.944;2023-04-03T12:45:20;8.40;1.00
29353;DHT22;16344;50.364;8.944;2023-04-03T12:47:55;8.40;1.00
29353;DHT22;16344;50.364;8.944;2023-04-03T12:50:28;8.20;1.00
29353;DHT22;16344;50.364;8.944;2023-04-03T12:52:59;8.10;1.00
29353;DHT22;16344;50.364;8.944;2023-04-03T12:55:26;8.00;1.00
29353;DHT22;16344;50.364;8.944;2023-04-03T12:57:52;8.20;1.00
29353;DHT22;16344;50.364;8.944;2023-04-03T13:00:33;8.70;1.00
29353;DHT22;16344;50.364;8.944;2023-04-03T13:03:01;9.40;1.00
29353;DHT22;16344;50.364;8.944;2023-04-03T13:05:27;9.80;1.00
29353;DHT22;16344;50.364;8.944;2023-04-03T13:08:05;10.00;1.00
29353;DHT22;16344;50.364;8.944;2023-04-03T13:10:48;10.00;1.00
29353;DHT22;16344;50.364;8.944;2023-04-03T13:13:15;9.90;1.00
29353;DHT22;16344;50.364;8.944;2023-04-03T13:15:44;9.60;1.00
29353;DHT22;16344;50.364;8.944;2023-04-03T13:18:26;9.40;1.00
29353;DHT22;16344;50.364;8.944;2023-04-03T13:20:53;9.00;1.00
29353;DHT22;16344;50.364;8.944;2023-04-03T13:23:26;8.80;1.00
29353;DHT22;16344;50.364;8.944;2023-04-03T13:25:52;8.50;1.00
29353;DHT22;16344;50.364;8.944;2023-04-03T13:28:21;8.40;1.00
29353;DHT22;16344;50.364;8.944;2023-04-03T13:31:22;8.50;1.00
29353;DHT22;16344;50.364;8.944;2023-04-03T13:36:36;9.20;1.00
29353;DHT22;16344;50.364;8.944;2023-04-03T13:41:41;9.60;1.00
29353;DHT22;16344;50.364;8.944;2023-04-03T13:46:49;9.30;1.00
29353;DHT22;16344;50.364;8.944;2023-04-03T13:55:04;8.80;1.00
29353;DHT22;16344;50.364;8.944;2023-04-03T13:57:37;8.70;1.00
29353;DHT22;16344;50.364;8.944;2023-04-03T14:00:53;8.60;1.00
29353;DHT22;16344;50.364;8.944;2023-04-03T14:03:32;8.60;1.00
29353;DHT22;16344;50.364;8.944;2023-04-03T14:06:00;9.00;1.00
29353;DHT22;16344;50.364;8.944;2023-04-03T14:08:26;9.10;1.00
29353;DHT22;16344;50.364;8.944;2023-04-03T14:10:53;8.80;1.00
29353;DHT22;16344;50.364;8.944;2023-04-03T14:13:19;8.50;1.00
29353;DHT22;16344;50.364;8.944;2023-04-03T14:15:47;8.40;1.00
29353;DHT22;16344;50.364;8.944;2023-04-03T14:18:16;8.20;1.00
29353;DHT22;16344;50.364;8.944;2023-04-03T14:20:44;8.10;1.00
29353;DHT22;16344;50.364;8.944;2023-04-03T14:23:10;8.10;1.00
29353;DHT22;16344;50.364;8.944;2023-04-03T14:25:36;8.20;1.00
29353;DHT22;16344;50.364;8.944;2023-04-03T14:28:19;8.30;1.00
29353;DHT22;16344;50.364;8.944;2023-04-03T14:30:46;8.60;1.00
29353;DHT22;16344;50.364;8.944;2023-04-03T14:33:18;8.80;1.00
29353;DHT22;16344;50.364;8.944;2023-04-03T14:35:44;8.60;1.00
29353;DHT22;16344;50.364;8.944;2023-04-03T14:38:21;8.70;1.00
29353;DHT22;16344;50.364;8.944;2023-04-03T14:40:47;9.00;1.00
29353;DHT22;16344;50.364;8.944;2023-04-03T14:43:13;9.10;1.00
29353;DHT22;16344;50.364;8.944;2023-04-03T14:45:39;9.30;1.00
29353;DHT22;16344;50.364;8.944;2023-04-03T14:48:06;9.40;1.00
29353;DHT22;16344;50.364;8.944;2023-04-03T14:50:35;9.30;1.00
29353;DHT22;16344;50.364;8.944;2023-04-03T14:53:00;9.00;1.00
29353;DHT22;16344;50.364;8.944;2023-04-03T14:55:26;8.80;1.00
29353;DHT22;16344;50.364;8.944;2023-04-03T14:57:53;8.40;1.00
29353;DHT22;16344;50.364;8.944;2023-04-03T15:00:20;8.20;1.00
29353;DHT22;16344;50.364;8.944;2023-04-03T15:02:46;8.00;1.00
29353;DHT22;16344;50.364;8.944;2023-04-03T15:05:13;8.20;1.00
29353;DHT22;16344;50.364;8.944;2023-04-03T15:07:59;8.50;1.00
29353;DHT22;16344;50.364;8.944;2023-04-03T15:10:29;8.70;1.00
29353;DHT22;16344;50.364;8.944;2023-04-03T15:12:56;8.90;1.00
29353;DHT22;16344;50.364;8.944;2023-04-03T15:15:36;8.90;1.00
29353;DHT22;16344;50.364;8.944;2023-04-03T15:18:02;8.90;1.00
29353;DHT22;16344;50.364;8.944;2023-04-03T15:20:28;8.60;1.00
29353;DHT22;16344;50.364;8.944;2023-04-03T15:22:56;8.40;1.00
29353;DHT22;16344;50.364;8.944;2023-04-03T15:25:23;8.10;1.00
29353;DHT22;16344;50.364;8.944;2023-04-03T15:27:48;8.00;1.00
29353;DHT22;16344;50.364;8.944;2023-04-03T15:30:17;8.00;1.00
29353;DHT22;16344;50.364;8.944;2023-04-03T15:32:43;8.10;1.00
29353;DHT22;16344;50.364;8.944;2023-04-03T15:35:09;8.00;1.00
29353;DHT22;16344;50.364;8.944;2023-04-03T15:37:35;8.00;1.00
29353;DHT22;16344;50.364;8.944;2023-04-03T15:40:00;7.90;1.00
29353;DHT22;16344;50.364;8.944;2023-04-03T15:42:26;8.20;1.00
29353;DHT22;16344;50.364;8.944;2023-04-03T15:44:51;8.00;1.00
29353;DHT22;16344;50.364;8.944;2023-04-03T15:47:17;7.80;1.00
29353;DHT22;16344;50.364;8.944;2023-04-03T15:49:43;7.60;1.00
29353;DHT22;16344;50.364;8.944;2023-04-03T15:52:08;7.50;1.00
29353;DHT22;16344;50.364;8.944;2023-04-03T15:54:34;7.30;1.00
29353;DHT22;16344;50.364;8.944;2023-04-03T15:56:59;7.20;1.00
29353;DHT22;16344;50.364;8.944;2023-04-03T15:59:25;7.10;1.00
29353;DHT22;16344;50.364;8.944;2023-04-03T16:01:51;7.00;1.00
29353;DHT22;16344;50.364;8.944;2023-04-03T16:04:18;7.00;1.00
29353;DHT22;16344;50.364;8.944;2023-04-03T16:06:44;7.10;1.00
29353;DHT22;16344;50.364;8.944;2023-04-03T16:09:10;7.20;1.00
29353;DHT22;16344;50.364;8.944;2023-04-03T16:11:36;7.00;1.00
29353;DHT22;16344;50.364;8.944;2023-04-03T16:14:04;7.10;1.00
29353;DHT22;16344;50.364;8.944;2023-04-03T16:16:30;7.20;1.00
29353;DHT22;16344;50.364;8.944;2023-04-03T16:18:56;7.10;1.00
29353;DHT22;16344;50.364;8.944;2023-04-03T16:21:21;6.90;1.00
29353;DHT22;16344;50.364;8.944;2023-04-03T16:23:47;6.90;1.00
29353;DHT22;16344;50.364;8.944;2023-04-03T16:26:13;6.80;1.00
29353;DHT22;16344;50.364;8.944;2023-04-03T16:28:39;6.80;1.00
29353;DHT22;16344;50.364;8.944;2023-04-03T16:31:05;6.80;1.00
29353;DHT22;16344;50.364;8.944;2023-04-03T16:33:31;6.80;1.00
29353;DHT22;16344;50.364;8.944;2023-04-03T16:35:57;6.90;1.00
29353;DHT22;16344;50.364;8.944;2023-04-03T16:38:22;6.80;1.00
29353;DHT22;16344;50.364;8.944;2023-04-03T16:40:48;6.80;1.00
29353;DHT22;16344;50.364;8.944;2023-04-03T16:43:15;6.80;1.00
29353;DHT22;16344;50.364;8.944;2023-04-03T16:45:41;6.90;1.00
29353;DHT22;16344;50.364;8.944;2023-04-03T16:48:07;6.70;1.00
29353;DHT22;16344;50.364;8.944;2023-04-03T16:50:33;6.70;1.00
29353;DHT22;16344;50.364;8.944;2023-04-03T16:52:58;6.70;1.00
29353;DHT22;16344;50.364;8.944;2023-04-03T16:55:24;6.80;1.00
29353;DHT22;16344;50.364;8.944;2023-04-03T17:04:47;6.30;1.00
29353;DHT22;16344;50.364;8.944;2023-04-03T17:07:12;6.10;1.00
29353;DHT22;16344;50.364;8.944;2023-04-03T17:09:38;6.10;1.00
29353;DHT22;16344;50.364;8.944;2023-04-03T17:22:39;5.90;1.00
29353;DHT22;16344;50.364;8.944;2023-04-03T17:28:31;5.90;1.00
29353;DHT22;16344;50.364;8.944;2023-04-03T17:30:59;6.00;1.00
29353;DHT22;16344;50.364;8.944;2023-04-03T17:33:25;6.00;1.00
29353;DHT22;16344;50.364;8.944;2023-04-03T17:36:10;5.90;1.00
29353;DHT22;16344;50.364;8.944;2023-04-03T17:38:36;6.00;1.00
29353;DHT22;16344;50.364;8.944;2023-04-03T17:41:04;5.90;1.00
29353;DHT22;16344;50.364;8.944;2023-04-03T17:47:01;5.80;1.00
29353;DHT22;16344;50.364;8.944;2023-04-03T17:52:47;5.70;1.00
29353;DHT22;16344;50.364;8.944;2023-04-03T17:55:13;5.70;1.00
29353;DHT22;16344;50.364;8.944;2023-04-03T17:57:58;5.70;1.00
29353;DHT22;16344;50.364;8.944;2023-04-03T18:00:24;5.70;1.00